Painesville, Ohio
Current Conditions -  °F | °C
As of 9:45 PM on Monday 20 Oct 2014 (Local Time) from KCGF Reporting Station
Light Rain Light Rain  
Wind Chill: 54°   Ceiling: 800
Heat Index: 54°   Visibility: 3mi
Dew Point: 54°   Wind: 12mph
Humidity: 100%   Direction: 290°WNW
Pressure: 29.85"   Gusts: NA
Location:  41.72°N, 81.24°W
Report Text: KCGF 210145Z 29010KT 3SM -RA BKN008 OVC012 12/12 A2985
Loading
Personal Weather Stations






























Interactive Weather Map
Tropical Storm Tracking
New forecast layout! Learn more

10-Day Weather Forecast

Advertisements
Track Severe Weather on mobile